Time;durP1;ratioP1;P1;durP2;ratioP2;P2;SDS_P1;SDS_P2;PMS_P1;PMS_P2;Temp;Humidity;BMP_temperature;BMP_pressure;BME280_temperature;BME280_humidity;BME280_pressure;Samples;Min_cycle;Max_cycle;Signal;HPM_P1;HPM_P2
2021/10/15 00:01:23;;;;;;;7.63;4.13;;;6.50;82.80;;;;;;5112192;28;20685;-73
2021/10/15 00:03:49;;;;;;;10.18;4.55;;;6.50;82.60;;;;;;5113016;28;20039;-74
2021/10/15 00:06:14;;;;;;;9.70;3.95;;;6.50;82.60;;;;;;5115774;28;20016;-74
2021/10/15 00:08:40;;;;;;;6.10;4.22;;;6.50;82.50;;;;;;5115869;28;20472;-74
2021/10/15 00:11:05;;;;;;;8.07;4.55;;;6.40;81.40;;;;;;5115693;28;20190;-73
2021/10/15 00:13:31;;;;;;;5.68;4.03;;;6.30;81.60;;;;;;5115707;28;20115;-74
2021/10/15 00:15:56;;;;;;;7.97;4.65;;;6.40;81.70;;;;;;5115616;28;20023;-73
2021/10/15 00:18:23;;;;;;;8.07;4.85;;;6.40;82.40;;;;;;5115645;28;20080;-73
2021/10/15 00:20:49;;;;;;;6.90;4.93;;;6.40;81.40;;;;;;5115667;28;20073;-73
2021/10/15 00:23:14;;;;;;;9.63;5.10;;;6.50;81.30;;;;;;5115592;28;20036;-74
2021/10/15 00:25:40;;;;;;;8.32;4.88;;;6.40;81.10;;;;;;5115558;28;20098;-73
2021/10/15 00:28:06;;;;;;;8.63;4.55;;;6.40;81.00;;;;;;5120282;28;20027;-75
2021/10/15 00:30:31;;;;;;;7.25;4.60;;;6.40;81.10;;;;;;5115611;28;20032;-75
2021/10/15 00:32:57;;;;;;;8.52;4.20;;;6.50;81.20;;;;;;5115578;28;20020;-74
2021/10/15 00:35:23;;;;;;;8.15;3.65;;;6.40;80.80;;;;;;5115480;28;20027;-75
2021/10/15 00:37:48;;;;;;;6.53;3.42;;;6.40;81.20;;;;;;5115279;28;20020;-74
2021/10/15 00:40:16;;;;;;;4.90;3.05;;;6.40;81.80;;;;;;5115207;28;20028;-74
2021/10/15 00:42:41;;;;;;;7.03;3.65;;;6.40;82.00;;;;;;5114966;28;20032;-73
2021/10/15 00:45:07;;;;;;;7.68;3.70;;;6.40;82.00;;;;;;5115272;28;20436;-74
2021/10/15 00:47:33;;;;;;;4.93;3.00;;;6.40;82.40;;;;;;5115055;28;20471;-74
2021/10/15 00:49:59;;;;;;;4.45;3.03;;;6.40;82.20;;;;;;5115028;28;20081;-74
2021/10/15 00:52:24;;;;;;;6.10;3.17;;;6.40;81.90;;;;;;5115182;28;20019;-74
2021/10/15 00:54:51;;;;;;;6.55;3.53;;;6.50;81.70;;;;;;5115113;28;20020;-74
2021/10/15 00:57:17;;;;;;;6.18;3.45;;;6.50;81.40;;;;;;5115077;28;20028;-74
2021/10/15 00:59:43;;;;;;;5.03;3.13;;;6.50;81.00;;;;;;5116769;28;20058;-74
2021/10/15 01:02:08;;;;;;;4.07;2.72;;;6.50;80.90;;;;;;5120390;28;20019;-73
2021/10/15 01:04:35;;;;;;;6.35;3.63;;;6.50;81.10;;;;;;5117941;28;20479;-74
2021/10/15 01:07:02;;;;;;;6.47;3.80;;;6.50;81.20;;;;;;5116640;28;20027;-73
2021/10/15 01:09:28;;;;;;;5.82;3.15;;;6.40;81.30;;;;;;5115404;28;20116;-74
2021/10/15 01:11:55;;;;;;;7.28;3.58;;;6.40;81.50;;;;;;5114502;28;20038;-73
2021/10/15 01:14:22;;;;;;;7.15;3.10;;;6.40;81.70;;;;;;5114277;28;20361;-73
2021/10/15 01:16:47;;;;;;;5.07;3.20;;;6.40;81.70;;;;;;5114607;28;20388;-73
2021/10/15 01:19:13;;;;;;;6.28;2.97;;;6.40;81.60;;;;;;5114400;28;20020;-73
2021/10/15 01:21:39;;;;;;;6.60;3.45;;;6.40;81.40;;;;;;5114747;28;20024;-74
2021/10/15 01:24:04;;;;;;;4.75;3.38;;;6.40;81.40;;;;;;5114392;28;20035;-73
2021/10/15 01:26:30;;;;;;;5.20;3.22;;;6.40;82.20;;;;;;5114466;28;20536;-73
2021/10/15 01:28:56;;;;;;;7.35;3.90;;;6.40;81.10;;;;;;5114422;28;20027;-73
2021/10/15 01:31:22;;;;;;;7.38;3.45;;;6.40;81.30;;;;;;5114428;28;20122;-73
2021/10/15 01:33:48;;;;;;;6.78;3.45;;;6.30;81.40;;;;;;5114172;28;20031;-73
2021/10/15 01:36:14;;;;;;;6.07;3.47;;;6.30;81.30;;;;;;5114291;28;20020;-73
2021/10/15 01:38:40;;;;;;;6.20;3.05;;;6.30;81.50;;;;;;5114107;28;20459;-74
2021/10/15 01:41:05;;;;;;;6.95;3.45;;;6.20;81.50;;;;;;5114335;28;20427;-74
2021/10/15 01:43:31;;;;;;;6.40;3.08;;;6.20;81.60;;;;;;5114032;28;20067;-74
2021/10/15 01:45:58;;;;;;;13.30;3.67;;;6.20;81.60;;;;;;5114033;28;20027;-74
2021/10/15 01:48:24;;;;;;;5.75;3.35;;;6.20;81.70;;;;;;5113876;28;20062;-75
2021/10/15 01:50:51;;;;;;;6.55;3.13;;;6.30;81.60;;;;;;5113941;28;20023;-76
2021/10/15 01:53:16;;;;;;;5.65;3.60;;;6.30;81.40;;;;;;5114173;28;20043;-77
2021/10/15 01:55:42;;;;;;;4.57;3.00;;;6.20;81.20;;;;;;5114060;28;20106;-77
2021/10/15 01:58:08;;;;;;;6.60;3.42;;;6.30;81.50;;;;;;5113907;28;20020;-77
2021/10/15 02:00:34;;;;;;;5.15;3.50;;;6.20;81.40;;;;;;5113930;28;20035;-76
2021/10/15 02:03:00;;;;;;;5.32;3.42;;;6.20;81.40;;;;;;5113517;28;20023;-74
2021/10/15 02:05:26;;;;;;;4.88;3.22;;;6.20;81.20;;;;;;5113823;28;20039;-76
2021/10/15 02:07:52;;;;;;;5.38;3.63;;;6.20;81.20;;;;;;5113719;28;20410;-76
2021/10/15 02:10:18;;;;;;;5.60;3.50;;;6.10;81.40;;;;;;5113596;28;20023;-77
2021/10/15 02:12:44;;;;;;;6.88;3.33;;;6.10;81.60;;;;;;5095357;28;20515;-77
2021/10/15 02:15:11;;;;;;;3.85;2.85;;;6.00;81.50;;;;;;5113630;28;20023;-77
2021/10/15 02:17:37;;;;;;;6.53;2.90;;;6.10;81.70;;;;;;5113641;28;20118;-76
2021/10/15 02:20:06;;;;;;;6.85;3.47;;;6.10;81.50;;;;;;5113499;28;20028;-74
2021/10/15 02:22:32;;;;;;;4.65;3.03;;;6.10;81.40;;;;;;5113391;28;20132;-75
2021/10/15 02:24:57;;;;;;;5.85;3.08;;;6.10;81.30;;;;;;5113462;28;20111;-74
2021/10/15 02:27:23;;;;;;;5.72;3.03;;;6.10;81.20;;;;;;5112453;28;20027;-75
2021/10/15 02:29:49;;;;;;;5.00;3.33;;;6.20;81.00;;;;;;5113282;28;20020;-76
2021/10/15 02:32:14;;;;;;;6.00;2.92;;;6.10;80.80;;;;;;5113169;28;20057;-75
2021/10/15 02:34:40;;;;;;;5.70;2.85;;;6.10;81.00;;;;;;5113124;28;20055;-75
2021/10/15 02:37:05;;;;;;;4.63;2.47;;;6.10;80.90;;;;;;5113224;28;20023;-74
2021/10/15 02:39:31;;;;;;;5.32;3.45;;;6.20;80.90;;;;;;5113101;28;20023;-75
2021/10/15 02:41:56;;;;;;;5.45;3.10;;;6.20;80.90;;;;;;5113074;28;20031;-74
2021/10/15 02:44:22;;;;;;;7.90;3.13;;;6.20;80.70;;;;;;5111730;28;20040;-75
2021/10/15 02:46:48;;;;;;;4.68;2.90;;;6.20;80.50;;;;;;5112983;28;20027;-76
2021/10/15 02:49:13;;;;;;;9.75;3.00;;;6.20;80.40;;;;;;5112965;28;20081;-75
2021/10/15 02:51:39;;;;;;;4.00;2.50;;;6.20;80.30;;;;;;5112937;28;20102;-76
2021/10/15 02:54:05;;;;;;;6.68;2.90;;;6.30;80.30;;;;;;5111644;28;20031;-75
2021/10/15 02:56:31;;;;;;;4.95;3.10;;;6.20;80.10;;;;;;5113022;28;20028;-74
2021/10/15 02:58:57;;;;;;;4.25;2.40;;;6.20;80.20;;;;;;5112775;28;20031;-73
2021/10/15 03:01:23;;;;;;;6.88;2.75;;;6.30;80.10;;;;;;5112949;28;20386;-74
2021/10/15 03:03:48;;;;;;;7.13;2.80;;;6.30;80.00;;;;;;5112613;28;20063;-74
2021/10/15 03:06:15;;;;;;;6.28;3.28;;;6.30;79.70;;;;;;5112825;28;20035;-75
2021/10/15 03:08:40;;;;;;;7.25;2.95;;;6.30;79.80;;;;;;5112792;28;20073;-75
2021/10/15 03:11:06;;;;;;;4.80;2.78;;;6.20;79.80;;;;;;5112859;28;20024;-74
2021/10/15 03:13:32;;;;;;;3.65;2.25;;;6.20;79.70;;;;;;5112782;28;20488;-74
2021/10/15 03:15:58;;;;;;;4.40;2.72;;;6.20;79.80;;;;;;5112558;28;20019;-74
2021/10/15 03:18:24;;;;;;;5.13;3.08;;;6.20;79.80;;;;;;5112716;28;20380;-74
2021/10/15 03:20:49;;;;;;;7.10;3.38;;;6.10;79.80;;;;;;5112690;28;20094;-75
2021/10/15 03:23:15;;;;;;;5.63;2.70;;;6.10;80.00;;;;;;5112586;28;20127;-74
2021/10/15 03:25:41;;;;;;;5.05;2.97;;;6.10;80.90;;;;;;5112594;28;20093;-75
2021/10/15 03:28:06;;;;;;;6.18;2.83;;;6.10;80.10;;;;;;5112515;28;20020;-73
2021/10/15 03:30:32;;;;;;;5.13;3.20;;;6.20;80.00;;;;;;5112361;28;20028;-74
2021/10/15 03:32:58;;;;;;;5.32;2.53;;;6.10;80.10;;;;;;5112530;28;20019;-73
2021/10/15 03:35:24;;;;;;;6.70;3.20;;;6.10;80.00;;;;;;5112520;28;20031;-73
2021/10/15 03:37:49;;;;;;;7.43;3.10;;;6.10;79.80;;;;;;5113427;28;20418;-73
2021/10/15 03:40:16;;;;;;;3.70;2.70;;;6.10;79.70;;;;;;5116554;28;20150;-72
2021/10/15 03:42:41;;;;;;;4.38;2.45;;;6.20;79.50;;;;;;5116388;28;20019;-73
2021/10/15 03:45:08;;;;;;;3.70;2.40;;;6.20;79.40;;;;;;5116468;28;20034;-76
2021/10/15 03:47:35;;;;;;;6.03;2.92;;;6.20;79.30;;;;;;5116306;28;20020;-74
2021/10/15 03:50:01;;;;;;;7.43;4.00;;;6.20;79.20;;;;;;5116292;28;20043;-74
2021/10/15 03:52:27;;;;;;;9.73;4.15;;;6.20;79.00;;;;;;5116080;28;20035;-74
2021/10/15 03:54:53;;;;;;;8.73;4.95;;;6.10;79.00;;;;;;5116177;28;20050;-74
2021/10/15 03:57:18;;;;;;;6.32;4.03;;;6.20;79.00;;;;;;5116107;28;20032;-73
2021/10/15 03:59:44;;;;;;;7.32;3.85;;;6.20;78.90;;;;;;5116028;28;20027;-75
2021/10/15 04:02:09;;;;;;;5.95;3.65;;;6.20;78.90;;;;;;5116023;28;20019;-75
2021/10/15 04:04:35;;;;;;;6.28;3.03;;;6.20;78.80;;;;;;5115893;28;20036;-74
2021/10/15 04:07:00;;;;;;;5.40;2.55;;;6.20;78.50;;;;;;5115777;28;20350;-76
2021/10/15 04:09:26;;;;;;;4.47;2.75;;;6.20;78.30;;;;;;5115829;28;20360;-75
2021/10/15 04:11:52;;;;;;;4.93;2.70;;;6.20;78.20;;;;;;5115731;28;20024;-76
2021/10/15 04:14:18;;;;;;;4.50;3.13;;;6.20;78.10;;;;;;5115691;28;20429;-76
2021/10/15 04:16:43;;;;;;;5.65;2.80;;;6.10;78.20;;;;;;5115738;28;20524;-78
2021/10/15 04:19:09;;;;;;;5.10;2.65;;;6.20;78.20;;;;;;5114251;28;20028;-76
2021/10/15 04:21:35;;;;;;;3.85;2.72;;;6.20;78.30;;;;;;5115697;28;20028;-77
2021/10/15 04:24:00;;;;;;;5.95;2.78;;;6.20;78.30;;;;;;5115490;28;20384;-76
2021/10/15 04:26:26;;;;;;;4.55;2.97;;;6.20;78.10;;;;;;5115524;28;20160;-76
2021/10/15 04:28:52;;;;;;;7.03;3.80;;;6.20;78.20;;;;;;5115279;28;20092;-75
2021/10/15 04:31:17;;;;;;;7.72;3.78;;;6.00;78.50;;;;;;5113814;28;20511;-76
2021/10/15 04:33:43;;;;;;;7.15;3.60;;;6.00;78.80;;;;;;5115244;28;20468;-76
2021/10/15 04:36:08;;;;;;;11.57;6.38;;;6.00;79.00;;;;;;5115278;28;20028;-76
2021/10/15 04:38:34;;;;;;;8.27;4.60;;;6.00;79.00;;;;;;5115183;28;20426;-76
2021/10/15 04:41:00;;;;;;;12.10;4.85;;;6.00;79.10;;;;;;5115137;28;20023;-76
2021/10/15 04:43:25;;;;;;;6.47;3.50;;;6.00;79.10;;;;;;5114926;28;20033;-76
2021/10/15 04:45:51;;;;;;;7.05;3.63;;;6.00;78.90;;;;;;5115089;28;20023;-76
2021/10/15 04:48:16;;;;;;;8.02;3.60;;;6.00;78.50;;;;;;5115142;28;20032;-76
2021/10/15 04:50:42;;;;;;;5.70;3.08;;;6.00;78.50;;;;;;5113775;28;20102;-76
2021/10/15 04:53:08;;;;;;;5.78;2.88;;;6.00;78.50;;;;;;5114947;28;20024;-76
2021/10/15 04:55:35;;;;;;;6.80;3.78;;;6.00;78.50;;;;;;5114928;28;20098;-77
2021/10/15 04:58:01;;;;;;;6.60;3.00;;;6.10;78.40;;;;;;5114580;28;20035;-76
2021/10/15 05:00:29;;;;;;;9.45;4.38;;;6.10;78.30;;;;;;5114611;28;20027;-75
2021/10/15 05:02:55;;;;;;;6.53;4.07;;;6.10;78.00;;;;;;5114193;28;20387;-75
2021/10/15 05:05:23;;;;;;;7.15;4.18;;;6.00;77.70;;;;;;5114737;28;20032;-74
2021/10/15 05:07:50;;;;;;;6.18;3.63;;;6.10;77.80;;;;;;5114494;28;20016;-74
2021/10/15 05:10:16;;;;;;;8.27;4.40;;;6.00;77.90;;;;;;5114737;28;20030;-75
2021/10/15 05:12:42;;;;;;;9.43;5.32;;;6.00;78.10;;;;;;5114604;28;20038;-75
2021/10/15 05:15:09;;;;;;;10.48;5.45;;;5.90;78.30;;;;;;5114481;28;20027;-74
2021/10/15 05:17:36;;;;;;;8.52;4.28;;;5.90;78.70;;;;;;5114295;28;20038;-74
2021/10/15 05:20:04;;;;;;;8.57;4.50;;;5.80;78.50;;;;;;5114309;28;20375;-74
2021/10/15 05:22:29;;;;;;;6.60;4.72;;;5.80;78.50;;;;;;5114043;28;20020;-74
2021/10/15 05:24:55;;;;;;;12.90;4.97;;;5.80;78.50;;;;;;5113672;28;20039;-75
2021/10/15 05:27:21;;;;;;;10.25;5.25;;;5.80;78.70;;;;;;5113884;28;20055;-75
2021/10/15 05:29:50;;;;;;;9.05;4.70;;;5.80;78.90;;;;;;5113700;28;20400;-75
2021/10/15 05:32:16;;;;;;;5.70;4.00;;;5.80;78.80;;;;;;5113479;28;20523;-75
2021/10/15 05:34:42;;;;;;;9.98;3.55;;;5.80;78.80;;;;;;5113855;28;20039;-75
2021/10/15 05:37:08;;;;;;;6.32;3.15;;;5.80;78.70;;;;;;5113922;28;20364;-75
2021/10/15 05:39:34;;;;;;;6.88;4.05;;;5.80;78.50;;;;;;5112478;28;20112;-75
2021/10/15 05:41:59;;;;;;;8.13;3.75;;;5.90;78.60;;;;;;5113634;28;20024;-75
2021/10/15 05:44:25;;;;;;;8.10;3.90;;;5.90;78.40;;;;;;5113464;28;20164;-74
2021/10/15 05:46:51;;;;;;;7.35;3.80;;;5.90;78.10;;;;;;5113475;28;20476;-75
2021/10/15 05:49:17;;;;;;;8.80;3.45;;;5.90;77.90;;;;;;5113917;28;20023;-74
2021/10/15 05:51:44;;;;;;;7.72;3.72;;;6.00;78.20;;;;;;5114200;28;20493;-75
2021/10/15 05:54:15;;;;;;;7.22;4.00;;;6.00;77.90;;;;;;5114502;28;20024;-75
2021/10/15 05:57:02;;;;;;;11.82;4.05;;;6.00;77.60;;;;;;5114487;28;20127;-74
2021/10/15 05:59:27;;;;;;;5.97;3.30;;;6.10;77.70;;;;;;5114435;28;20035;-75
2021/10/15 06:01:57;;;;;;;11.43;5.55;;;6.10;77.40;;;;;;5113902;28;20449;-74
2021/10/15 06:05:06;;;;;;;18.70;9.00;;;6.20;76.90;;;;;;5114100;28;20382;-76
2021/10/15 06:15:32;;;;;;;23.25;11.40;;;6.20;75.90;;;;;;5114217;28;20052;-76
2021/10/15 06:17:58;;;;;;;19.45;10.70;;;6.20;76.00;;;;;;5113863;28;20023;-76
2021/10/15 06:20:24;;;;;;;19.50;10.05;;;6.20;76.20;;;;;;5113647;28;20031;-76
2021/10/15 06:22:49;;;;;;;18.20;9.10;;;6.10;76.40;;;;;;5113354;28;20059;-76
2021/10/15 06:25:15;;;;;;;16.77;7.82;;;6.10;76.60;;;;;;5113632;28;20032;-74
2021/10/15 06:27:41;;;;;;;14.88;7.85;;;6.20;76.20;;;;;;5113494;28;20094;-76
2021/10/15 06:30:07;;;;;;;13.38;7.00;;;6.20;76.20;;;;;;5113292;28;20032;-76
2021/10/15 06:32:33;;;;;;;16.55;6.60;;;6.20;76.30;;;;;;5113224;28;20054;-76
2021/10/15 06:34:58;;;;;;;14.70;6.80;;;6.30;76.30;;;;;;5113633;28;20026;-75
2021/10/15 06:37:25;;;;;;;12.52;6.30;;;6.40;76.30;;;;;;5112999;28;20382;-75
2021/10/15 06:39:51;;;;;;;14.07;7.30;;;6.60;76.10;;;;;;5112695;28;20077;-74
2021/10/15 06:42:17;;;;;;;14.60;6.35;;;6.70;75.70;;;;;;5112785;28;20545;-75
2021/10/15 06:44:42;;;;;;;11.77;6.55;;;6.80;75.10;;;;;;5112648;28;20039;-73
2021/10/15 06:47:08;;;;;;;13.85;6.63;;;6.90;74.60;;;;;;5112867;28;20069;-73
2021/10/15 06:49:34;;;;;;;15.32;6.55;;;7.00;74.20;;;;;;5112859;28;20055;-75
2021/10/15 06:51:59;;;;;;;23.33;7.07;;;7.00;73.70;;;;;;5112548;28;20094;-75
2021/10/15 06:54:25;;;;;;;11.02;5.40;;;6.70;73.60;;;;;;5112478;28;20027;-74
2021/10/15 06:56:50;;;;;;;16.95;6.93;;;6.80;74.10;;;;;;5112374;28;20448;-73
2021/10/15 06:59:16;;;;;;;15.82;6.50;;;6.80;74.10;;;;;;5112581;28;20468;-74
2021/10/15 07:01:42;;;;;;;17.05;5.90;;;6.80;74.30;;;;;;5112401;28;20428;-77
2021/10/15 07:04:07;;;;;;;15.10;6.78;;;6.80;74.20;;;;;;5112464;28;20055;-75
2021/10/15 07:06:34;;;;;;;14.45;7.45;;;6.90;74.10;;;;;;5112470;28;20054;-75
2021/10/15 07:09:00;;;;;;;16.50;9.20;;;7.00;74.10;;;;;;5112529;28;20495;-75
2021/10/15 07:11:26;;;;;;;26.77;12.50;;;7.10;74.00;;;;;;5112518;28;20024;-76
2021/10/15 07:13:51;;;;;;;19.63;11.52;;;7.10;73.90;;;;;;5115322;28;20112;-75
2021/10/15 07:16:17;;;;;;;15.10;8.70;;;7.30;73.70;;;;;;5116741;28;20103;-75
2021/10/15 07:18:43;;;;;;;12.85;6.43;;;7.40;73.50;;;;;;5116805;28;20027;-75
2021/10/15 07:21:09;;;;;;;11.00;5.35;;;7.50;73.40;;;;;;5116792;28;20019;-73
2021/10/15 07:23:35;;;;;;;9.55;5.15;;;7.50;73.30;;;;;;5116683;28;20543;-74
2021/10/15 07:26:02;;;;;;;18.00;8.32;;;7.50;73.10;;;;;;5116731;28;20019;-74
2021/10/15 07:28:28;;;;;;;20.63;11.95;;;7.60;73.00;;;;;;5116816;28;20099;-74
2021/10/15 07:30:55;;;;;;;20.23;11.18;;;7.60;73.20;;;;;;5116265;28;20585;-73
2021/10/15 07:33:22;;;;;;;20.05;9.85;;;7.60;73.20;;;;;;5116212;28;20023;-73
2021/10/15 07:35:47;;;;;;;14.65;8.80;;;7.70;73.20;;;;;;5116144;28;20555;-74
2021/10/15 07:38:13;;;;;;;10.82;6.38;;;7.70;73.00;;;;;;5116380;28;20102;-73
2021/10/15 07:40:39;;;;;;;9.85;5.60;;;7.70;73.00;;;;;;5116271;28;20467;-74
2021/10/15 07:43:05;;;;;;;10.35;5.38;;;7.70;73.20;;;;;;5115895;28;20449;-74
2021/10/15 07:45:30;;;;;;;9.48;5.10;;;7.70;73.50;;;;;;5115859;28;20023;-73
2021/10/15 07:47:56;;;;;;;13.88;5.13;;;7.70;73.80;;;;;;5116068;28;20104;-75
2021/10/15 07:50:22;;;;;;;9.20;4.43;;;7.70;74.00;;;;;;5115840;28;20371;-75
2021/10/15 07:52:48;;;;;;;10.40;4.53;;;7.80;74.50;;;;;;5115622;28;20438;-75
2021/10/15 07:55:14;;;;;;;7.57;4.07;;;7.90;74.50;;;;;;5115850;28;20102;-75
2021/10/15 07:57:40;;;;;;;11.18;4.72;;;8.00;74.30;;;;;;5115729;28;20564;-76
2021/10/15 08:00:08;;;;;;;13.63;4.30;;;8.20;74.10;;;;;;5115848;28;20027;-74
2021/10/15 08:02:34;;;;;;;10.43;6.25;;;8.50;73.70;;;;;;5115708;28;20046;-75
2021/10/15 08:04:59;;;;;;;9.68;5.45;;;8.60;73.10;;;;;;5115515;28;20499;-74
2021/10/15 08:07:25;;;;;;;11.23;5.45;;;8.70;73.20;;;;;;5115848;28;20467;-74
2021/10/15 08:09:51;;;;;;;9.55;5.10;;;8.70;73.70;;;;;;5115655;28;20084;-74
2021/10/15 08:12:19;;;;;;;12.35;5.75;;;8.70;73.50;;;;;;5116588;28;20020;-75
2021/10/15 08:14:45;;;;;;;10.63;5.55;;;8.80;73.20;;;;;;5120759;28;20023;-74
2021/10/15 08:17:11;;;;;;;10.30;5.25;;;9.00;73.00;;;;;;5124526;28;20041;-75
2021/10/15 08:19:40;;;;;;;8.82;5.05;;;9.20;72.20;;;;;;5120251;28;20379;-74
2021/10/15 08:22:06;;;;;;;17.27;6.00;;;9.30;71.40;;;;;;5118356;28;20043;-78
2021/10/15 08:24:32;;;;;;;8.57;5.60;;;9.50;71.20;;;;;;5115947;28;20027;-75
2021/10/15 08:26:58;;;;;;;11.00;4.93;;;9.70;71.40;;;;;;5115566;28;20485;-77
2021/10/15 08:29:24;;;;;;;9.57;5.25;;;9.90;70.90;;;;;;5115444;28;20073;-75
2021/10/15 08:31:50;;;;;;;10.23;5.43;;;10.20;70.50;;;;;;5115126;28;20150;-80
2021/10/15 08:34:17;;;;;;;10.18;4.55;;;10.40;69.80;;;;;;5115265;28;20019;-80
2021/10/15 08:36:44;;;;;;;19.88;6.03;;;10.80;75.50;;;;;;5115150;28;20011;-81
2021/10/15 08:39:11;;;;;;;10.98;5.45;;;11.20;73.70;;;;;;5115431;28;20019;-79
2021/10/15 08:41:37;;;;;;;10.63;5.15;;;11.60;71.60;;;;;;5115124;28;20094;-82
2021/10/15 08:44:03;;;;;;;12.35;5.55;;;11.90;72.10;;;;;;5113701;28;20131;-80
2021/10/15 08:46:30;;;;;;;8.50;5.22;;;12.40;69.80;;;;;;5115192;28;20028;-79
2021/10/15 08:48:55;;;;;;;11.93;5.05;;;12.70;65.90;;;;;;5115048;28;20067;-80
2021/10/15 08:51:22;;;;;;;8.77;5.63;;;13.00;66.50;;;;;;5114759;28;20019;-81
2021/10/15 08:53:52;;;;;;;6.30;4.70;;;13.30;62.60;;;;;;5114810;28;20098;-79
2021/10/15 08:56:20;;;;;;;11.75;4.90;;;13.60;62.20;;;;;;5114817;28;20328;-80
2021/10/15 08:58:48;;;;;;;8.27;4.35;;;13.50;59.10;;;;;;5114910;28;20020;-79
2021/10/15 09:01:15;;;;;;;8.40;4.20;;;13.60;59.30;;;;;;5114877;28;20107;-81
2021/10/15 09:03:41;;;;;;;5.55;3.30;;;13.60;59.20;;;;;;5114486;28;20039;-78
2021/10/15 09:06:11;;;;;;;7.32;3.70;;;13.60;59.60;;;;;;5114569;28;20031;-82
2021/10/15 09:08:47;;;;;;;6.60;2.70;;;13.80;59.00;;;;;;5114880;28;20479;-81
2021/10/15 09:11:30;;;;;;;4.28;2.53;;;14.00;57.70;;;;;;5114732;28;20034;-81
2021/10/15 09:14:22;;;;;;;5.30;3.03;;;14.20;57.70;;;;;;5114798;28;20027;-81
2021/10/15 09:16:57;;;;;;;6.72;3.50;;;14.70;57.50;;;;;;5104373;28;20176;-84
2021/10/15 09:19:23;;;;;;;5.50;3.23;;;15.00;55.10;;;;;;5114098;28;20078;-83
2021/10/15 09:22:14;;;;;;;5.72;3.17;;;15.40;55.10;;;;;;5114577;28;20016;-80
2021/10/15 09:24:46;;;;;;;4.80;3.13;;;15.60;54.50;;;;;;5114389;28;20032;-81
2021/10/15 09:27:25;;;;;;;4.50;2.80;;;15.90;53.30;;;;;;5114475;28;20345;-84
2021/10/15 09:29:54;;;;;;;3.63;2.90;;;16.00;52.30;;;;;;5113994;28;20555;-85
2021/10/15 09:32:23;;;;;;;3.63;2.42;;;16.30;50.20;;;;;;5114300;28;20073;-83
2021/10/15 09:34:49;;;;;;;3.90;2.55;;;16.60;49.50;;;;;;5113708;28;20489;-83
2021/10/15 09:37:17;;;;;;;3.08;2.65;;;16.90;48.40;;;;;;5113599;28;20020;-83
2021/10/15 09:39:43;;;;;;;5.07;2.40;;;17.20;47.60;;;;;;5113752;28;20511;-83
2021/10/15 09:42:26;;;;;;;5.35;2.70;;;17.60;46.30;;;;;;5113887;28;20081;-83
2021/10/15 09:44:53;;;;;;;4.47;2.50;;;17.90;44.40;;;;;;5112337;28;20072;-83
2021/10/15 09:47:24;;;;;;;5.97;2.78;;;18.20;43.90;;;;;;5113933;28;20012;-82
2021/10/15 09:49:54;;;;;;;4.95;2.88;;;18.40;42.80;;;;;;5113795;28;20020;-81
2021/10/15 09:52:38;;;;;;;4.43;2.53;;;18.60;41.00;;;;;;5114318;28;20045;-82
2021/10/15 09:55:33;;;;;;;4.05;2.47;;;18.00;41.20;;;;;;5115239;28;20020;-84
2021/10/15 09:58:09;;;;;;;6.28;2.42;;;17.50;42.00;;;;;;5114472;28;20102;-82
2021/10/15 10:00:34;;;;;;;2.35;2.13;;;17.20;43.20;;;;;;5114989;28;20175;-84
2021/10/15 10:03:01;;;;;;;4.82;2.08;;;17.30;43.50;;;;;;5115882;28;20031;-80
2021/10/15 10:05:27;;;;;;;2.00;1.80;;;17.30;41.80;;;;;;5120027;28;20024;-83
2021/10/15 10:07:54;;;;;;;5.80;2.25;;;17.20;42.90;;;;;;5120183;28;20051;-83
2021/10/15 10:10:23;;;;;;;3.13;2.40;;;17.10;41.40;;;;;;5124224;28;20465;-83
2021/10/15 10:12:50;;;;;;;3.15;2.03;;;16.90;42.00;;;;;;5131872;28;20042;-80
2021/10/15 10:15:19;;;;;;;3.03;2.30;;;16.60;43.60;;;;;;5133214;28;20028;-85
2021/10/15 10:18:01;;;;;;;4.80;2.13;;;16.60;44.30;;;;;;5113869;28;20085;-81
2021/10/15 10:20:30;;;;;;;3.47;1.70;;;16.90;43.40;;;;;;5113561;28;20110;-82
2021/10/15 10:23:01;;;;;;;2.97;1.88;;;17.30;43.30;;;;;;5112968;28;20387;-81
2021/10/15 10:25:28;;;;;;;5.07;2.25;;;17.50;41.60;;;;;;5113005;28;20077;-83
2021/10/15 10:27:57;;;;;;;5.07;2.45;;;17.90;41.50;;;;;;5113192;28;20012;-81
2021/10/15 10:30:35;;;;;;;3.47;2.25;;;18.40;40.90;;;;;;5112838;28;20031;-79
2021/10/15 10:33:02;;;;;;;3.72;2.40;;;18.70;39.70;;;;;;5112928;28;20061;-80
2021/10/15 10:35:29;;;;;;;2.30;1.92;;;19.10;38.50;;;;;;5113108;28;20042;-79
2021/10/15 10:38:20;;;;;;;2.53;2.05;;;19.30;37.80;;;;;;5111911;28;20024;-81
2021/10/15 10:41:00;;;;;;;4.63;2.20;;;19.10;37.80;;;;;;5111893;28;20030;-80
2021/10/15 10:43:30;;;;;;;3.42;1.98;;;19.00;37.90;;;;;;5111307;28;20023;-80
2021/10/15 10:46:18;;;;;;;2.40;1.98;;;18.30;38.90;;;;;;5109524;28;20031;-82
2021/10/15 10:48:49;;;;;;;3.78;2.30;;;17.90;40.10;;;;;;5108323;28;20357;-81
2021/10/15 10:51:24;;;;;;;2.90;1.85;;;17.80;39.80;;;;;;5106358;28;20034;-80
2021/10/15 10:54:10;;;;;;;3.30;2.15;;;18.00;40.80;;;;;;5110600;28;20023;-79
2021/10/15 10:56:41;;;;;;;3.03;2.28;;;18.10;40.10;;;;;;5112339;28;20016;-78
2021/10/15 10:59:19;;;;;;;2.33;1.52;;;17.80;39.40;;;;;;5112003;28;20472;-80
2021/10/15 11:02:02;;;;;;;2.53;1.65;;;17.60;40.50;;;;;;5111234;28;20472;-81
2021/10/15 11:04:42;;;;;;;2.65;1.45;;;17.70;40.80;;;;;;5112565;28;20058;-80
2021/10/15 11:07:20;;;;;;;2.40;1.65;;;18.20;40.40;;;;;;5112636;28;20109;-80
2021/10/15 11:09:48;;;;;;;2.63;1.58;;;18.40;38.70;;;;;;5112828;28;20019;-77
2021/10/15 11:12:27;;;;;;;2.08;1.58;;;18.70;38.40;;;;;;5112140;28;20100;-77
2021/10/15 11:15:10;;;;;;;2.67;2.22;;;18.50;38.60;;;;;;5112384;28;20096;-77
2021/10/15 11:17:45;;;;;;;4.55;2.30;;;18.30;38.30;;;;;;5112129;28;20066;-77
2021/10/15 11:20:18;;;;;;;2.33;1.73;;;18.30;39.00;;;;;;5112078;28;20081;-76
2021/10/15 11:22:50;;;;;;;4.07;1.40;;;18.10;39.60;;;;;;5111136;28;20088;-75
2021/10/15 11:25:17;;;;;;;1.35;1.17;;;18.30;39.20;;;;;;5112152;28;20057;-75
2021/10/15 11:27:42;;;;;;;1.50;1.25;;;18.40;37.40;;;;;;5112180;28;20077;-75
2021/10/15 11:30:10;;;;;;;3.75;1.40;;;18.90;37.40;;;;;;5112199;28;20484;-76
2021/10/15 11:32:41;;;;;;;1.50;1.40;;;18.90;36.30;;;;;;5112427;28;20075;-77
2021/10/15 11:35:13;;;;;;;4.13;1.52;;;19.20;37.20;;;;;;5112259;28;20081;-74
2021/10/15 11:38:01;;;;;;;1.65;1.35;;;19.50;37.20;;;;;;5112331;28;20049;-77
2021/10/15 11:40:46;;;;;;;5.57;1.60;;;19.80;37.20;;;;;;5112366;28;20560;-77
2021/10/15 11:43:22;;;;;;;2.10;1.33;;;19.70;36.50;;;;;;5112248;28;20149;-77
2021/10/15 11:45:52;;;;;;;5.18;1.60;;;19.30;36.10;;;;;;5113313;28;20032;-77
2021/10/15 11:48:20;;;;;;;1.75;1.27;;;18.90;37.00;;;;;;5115516;28;20058;-81
2021/10/15 11:50:46;;;;;;;9.27;1.50;;;19.10;37.70;;;;;;5112035;28;20020;-78
2021/10/15 11:53:15;;;;;;;4.82;1.55;;;19.40;37.90;;;;;;5112755;28;20483;-81
2021/10/15 11:55:41;;;;;;;5.90;1.50;;;19.90;37.10;;;;;;5112310;28;20032;-82
2021/10/15 11:58:39;;;;;;;8.00;1.38;;;20.30;36.50;;;;;;5113212;28;20024;-81
2021/10/15 12:01:07;;;;;;;6.85;1.70;;;20.60;36.00;;;;;;5116995;28;20022;-78
2021/10/15 12:03:36;;;;;;;1.40;1.27;;;20.90;35.90;;;;;;5116121;28;20050;-78
2021/10/15 12:06:30;;;;;;;4.80;1.60;;;20.60;34.60;;;;;;5115940;28;20106;-78
2021/10/15 12:09:00;;;;;;;1.65;1.48;;;20.10;36.10;;;;;;5114483;28;20024;-77
2021/10/15 12:11:47;;;;;;;3.08;1.38;;;20.10;36.30;;;;;;5115886;28;20024;-77
2021/10/15 12:14:26;;;;;;;3.97;1.67;;;20.20;35.90;;;;;;5114193;28;20027;-77
2021/10/15 12:17:06;;;;;;;3.88;1.48;;;20.10;35.60;;;;;;5115716;28;20061;-78
2021/10/15 12:19:39;;;;;;;2.35;1.48;;;20.40;35.60;;;;;;5115642;28;20506;-77
2021/10/15 12:22:16;;;;;;;6.35;1.33;;;20.80;34.70;;;;;;5115392;28;20479;-77
2021/10/15 12:24:58;;;;;;;2.83;1.65;;;21.10;34.20;;;;;;5115137;28;20069;-77
2021/10/15 12:27:37;;;;;;;2.22;1.58;;;21.20;34.50;;;;;;5115247;28;20110;-77
2021/10/15 12:30:13;;;;;;;2.38;1.30;;;21.40;33.50;;;;;;5115304;28;20059;-78
2021/10/15 12:32:40;;;;;;;2.05;1.80;;;21.40;33.50;;;;;;5115287;28;20044;-77
2021/10/15 12:35:17;;;;;;;4.40;1.77;;;21.30;32.50;;;;;;5115095;28;20032;-77
2021/10/15 12:37:51;;;;;;;3.58;1.75;;;21.10;33.70;;;;;;5114848;28;20032;-76
2021/10/15 12:40:21;;;;;;;4.50;2.20;;;21.20;33.60;;;;;;5114960;28;20024;-79
2021/10/15 12:43:06;;;;;;;3.25;2.05;;;21.70;32.80;;;;;;5114832;28;20465;-78
2021/10/15 12:45:35;;;;;;;4.10;1.65;;;21.20;33.60;;;;;;5114998;28;20502;-78
2021/10/15 12:48:05;;;;;;;2.65;1.70;;;21.60;32.70;;;;;;5114951;28;20031;-77
2021/10/15 12:50:33;;;;;;;3.65;1.95;;;21.80;31.70;;;;;;5115068;28;20024;-77
2021/10/15 12:53:13;;;;;;;3.25;1.52;;;21.20;32.50;;;;;;5114858;28;20016;-78
2021/10/15 12:55:51;;;;;;;3.60;2.50;;;21.50;33.00;;;;;;5114663;28;20032;-76
2021/10/15 12:58:16;;;;;;;3.95;2.10;;;21.80;32.40;;;;;;5113603;28;20020;-77
2021/10/15 13:00:47;;;;;;;3.53;2.03;;;21.80;32.20;;;;;;5115024;28;20123;-76
2021/10/15 13:03:12;;;;;;;3.55;2.28;;;21.50;33.30;;;;;;5114353;28;20484;-75
2021/10/15 13:05:38;;;;;;;2.47;1.88;;;21.10;33.40;;;;;;5114759;28;20034;-76